createdAt,value
2023-08-21T00:02:08.257Z,76.35
2023-08-21T00:04:35.145Z,76.40
2023-08-21T00:07:02.072Z,76.51
2023-08-21T00:09:29.045Z,76.53
2023-08-21T00:11:55.943Z,76.52
2023-08-21T00:14:23.311Z,76.55
2023-08-21T00:16:50.322Z,76.35
2023-08-21T00:19:17.394Z,76.33
2023-08-21T00:21:44.360Z,76.33
2023-08-21T00:24:11.830Z,76.43
2023-08-21T00:26:38.678Z,76.40
2023-08-21T00:29:05.628Z,76.44
2023-08-21T00:31:32.606Z,76.50
2023-08-21T00:33:59.512Z,76.44
2023-08-21T00:36:26.723Z,76.53
2023-08-21T00:38:54.160Z,76.65
2023-08-21T00:41:21.059Z,76.77
2023-08-21T00:43:48.090Z,76.61
2023-08-21T00:46:16.350Z,76.53
2023-08-21T00:48:44.656Z,76.53
2023-08-21T00:51:15.226Z,76.54
2023-08-21T00:53:42.943Z,76.62
2023-08-21T00:56:10.054Z,76.70
2023-08-21T00:58:37.126Z,76.63
2023-08-21T01:01:05.510Z,76.59
2023-08-21T01:03:32.442Z,76.62
2023-08-21T01:05:59.499Z,76.71
2023-08-21T01:08:35.741Z,76.72
2023-08-21T01:11:22.028Z,76.73
2023-08-21T01:13:54.967Z,76.80
2023-08-21T01:16:22.597Z,76.64
2023-08-21T01:18:50.500Z,76.53
2023-08-21T01:21:18.628Z,76.51
2023-08-21T01:23:45.563Z,76.50
2023-08-21T01:26:12.666Z,76.57
2023-08-21T01:28:39.646Z,76.66
2023-08-21T01:31:09.657Z,76.57
2023-08-21T01:33:45.239Z,76.62
2023-08-21T01:36:12.536Z,76.53
2023-08-21T01:38:39.867Z,76.59
2023-08-21T01:41:06.742Z,76.71
2023-08-21T01:43:33.887Z,76.77
2023-08-21T01:46:03.381Z,76.90
2023-08-21T01:48:30.422Z,76.77
2023-08-21T01:50:57.421Z,76.63
2023-08-21T01:53:24.419Z,76.61
2023-08-21T01:55:51.324Z,76.60
2023-08-21T01:58:18.282Z,76.64
2023-08-21T02:00:48.779Z,76.71
2023-08-21T02:03:15.907Z,76.74
2023-08-21T02:05:43.178Z,76.68
2023-08-21T02:08:14.407Z,76.70
2023-08-21T02:10:51.777Z,76.68
2023-08-21T02:13:20.011Z,76.57
2023-08-21T02:15:47.000Z,76.54
2023-08-21T02:18:14.012Z,76.53
2023-08-21T02:20:41.535Z,76.64
2023-08-21T02:23:08.451Z,76.65
2023-08-21T02:25:35.589Z,76.59
2023-08-21T02:28:04.701Z,76.65
2023-08-21T02:30:31.603Z,76.75
2023-08-21T02:32:59.022Z,76.83
2023-08-21T02:35:26.140Z,76.77
2023-08-21T02:37:53.112Z,76.88
2023-08-21T02:40:20.036Z,76.82
2023-08-21T02:42:47.054Z,76.80
2023-08-21T02:45:14.042Z,76.91
2023-08-21T02:47:41.915Z,76.85
2023-08-21T02:50:10.639Z,77.07
2023-08-21T02:52:38.314Z,76.95
2023-08-21T02:55:06.187Z,76.98
2023-08-21T02:57:33.302Z,76.97
2023-08-21T03:00:00.436Z,76.99
2023-08-21T03:02:27.981Z,76.83
2023-08-21T03:04:54.982Z,76.69
2023-08-21T03:07:21.867Z,76.67
2023-08-21T03:09:49.714Z,76.77
2023-08-21T03:12:16.772Z,76.72
2023-08-21T03:14:43.893Z,76.73
2023-08-21T03:17:10.880Z,76.77
2023-08-21T03:19:37.843Z,76.74
2023-08-21T03:22:04.765Z,76.69
2023-08-21T03:24:31.720Z,76.68
2023-08-21T03:26:58.801Z,76.64
2023-08-21T03:29:25.722Z,76.60
2023-08-21T03:31:55.284Z,76.65
2023-08-21T03:34:22.356Z,76.57
2023-08-21T03:36:49.291Z,76.51
2023-08-21T03:39:16.213Z,76.70
2023-08-21T03:41:43.505Z,76.68
2023-08-21T03:44:10.369Z,76.60
2023-08-21T03:46:37.410Z,76.63
2023-08-21T03:49:05.023Z,76.54
2023-08-21T03:51:31.986Z,76.67
2023-08-21T03:53:59.247Z,76.66
2023-08-21T03:56:30.102Z,76.78
2023-08-21T03:58:57.971Z,76.77
2023-08-21T04:01:24.934Z,76.74
2023-08-21T04:03:52.066Z,76.89
2023-08-21T04:06:18.982Z,76.93
2023-08-21T04:08:46.029Z,76.93
2023-08-21T04:11:13.084Z,77.07
2023-08-21T04:13:39.989Z,77.05
2023-08-21T04:16:06.986Z,77.17
2023-08-21T04:18:41.145Z,77.06
2023-08-21T04:21:10.392Z,77.07
2023-08-21T04:23:37.499Z,77.16
2023-08-21T04:26:05.405Z,77.21
2023-08-21T04:28:33.569Z,77.29
2023-08-21T04:31:00.876Z,77.40
2023-08-21T04:33:29.455Z,77.46
2023-08-21T04:35:56.397Z,77.55
2023-08-21T04:38:23.589Z,77.58
2023-08-21T04:40:50.661Z,77.61
2023-08-21T04:43:18.317Z,77.68
2023-08-21T04:45:49.962Z,77.77
2023-08-21T04:48:17.121Z,77.80
2023-08-21T04:50:44.072Z,77.98
2023-08-21T04:53:11.552Z,77.97
2023-08-21T04:55:40.951Z,78.13
2023-08-21T04:58:08.842Z,78.06
2023-08-21T05:00:36.089Z,78.17
2023-08-21T05:03:03.495Z,78.22
2023-08-21T05:05:31.173Z,78.07
2023-08-21T05:07:58.133Z,78.22
2023-08-21T05:10:25.089Z,78.27
2023-08-21T05:12:58.260Z,78.24
2023-08-21T05:15:56.203Z,78.21
2023-08-21T05:18:24.504Z,77.98
2023-08-21T05:20:55.096Z,77.89
2023-08-21T05:23:22.193Z,77.71
2023-08-21T05:25:49.676Z,77.68
2023-08-21T05:28:16.711Z,77.66
2023-08-21T05:30:43.617Z,77.52
2023-08-21T05:33:10.591Z,77.47
2023-08-21T05:35:37.738Z,77.25
2023-08-21T05:38:05.262Z,77.31
2023-08-21T05:40:32.190Z,77.19
2023-08-21T05:42:59.467Z,76.99
2023-08-21T05:45:26.404Z,76.97
2023-08-21T05:47:53.387Z,76.88
2023-08-21T05:50:20.377Z,76.77
2023-08-21T05:52:47.336Z,76.63
2023-08-21T05:55:14.373Z,76.82
2023-08-21T05:57:41.373Z,76.64
2023-08-21T06:00:09.357Z,76.92
2023-08-21T06:02:36.676Z,77.38
2023-08-21T06:05:04.476Z,76.60
2023-08-21T06:07:33.382Z,76.62
2023-08-21T06:10:00.644Z,76.32
2023-08-21T06:12:27.730Z,75.85
2023-08-21T06:14:54.595Z,75.66
2023-08-21T06:17:22.064Z,75.45
2023-08-21T06:19:49.064Z,75.18
2023-08-21T06:22:16.227Z,74.98
2023-08-21T06:24:43.396Z,74.99
2023-08-21T06:27:10.353Z,74.84
2023-08-21T06:29:38.400Z,74.42
2023-08-21T06:32:05.521Z,74.67
2023-08-21T06:34:32.453Z,74.65
2023-08-21T06:36:59.538Z,74.49
2023-08-21T06:39:26.730Z,74.53
2023-08-21T06:41:53.793Z,74.51
2023-08-21T06:44:21.048Z,74.54
2023-08-21T06:46:48.381Z,74.97
2023-08-21T06:49:15.400Z,74.81
2023-08-21T06:51:42.251Z,75.22
2023-08-21T06:54:09.188Z,75.30
2023-08-21T06:56:36.204Z,75.09
2023-08-21T06:59:03.100Z,75.42
2023-08-21T07:01:30.262Z,75.54
2023-08-21T07:03:57.265Z,75.34
2023-08-21T07:06:24.145Z,75.21
2023-08-21T07:08:51.076Z,75.05
2023-08-21T07:11:18.012Z,74.52
2023-08-21T07:13:44.901Z,74.45
2023-08-21T07:16:11.845Z,74.49
2023-08-21T07:18:39.615Z,74.46
2023-08-21T07:21:12.625Z,74.46
2023-08-21T07:23:50.082Z,74.43
2023-08-21T07:26:16.989Z,74.16
2023-08-21T07:28:44.047Z,74.02
2023-08-21T07:31:11.195Z,73.83
2023-08-21T07:33:38.046Z,73.94
2023-08-21T07:36:27.789Z,74.10
2023-08-21T07:39:01.697Z,74.19
2023-08-21T07:41:31.619Z,74.03
2023-08-21T07:43:58.534Z,73.94
2023-08-21T07:46:25.522Z,74.25
2023-08-21T07:48:53.475Z,73.72
2023-08-21T07:51:20.447Z,73.37
2023-08-21T07:53:47.580Z,73.29
2023-08-21T07:56:14.800Z,73.41
2023-08-21T07:58:41.960Z,73.80
2023-08-21T08:01:17.278Z,73.99
2023-08-21T08:03:44.377Z,73.90
2023-08-21T08:06:12.355Z,73.70
2023-08-21T08:08:39.456Z,73.64
2023-08-21T08:11:07.397Z,73.62
2023-08-21T08:13:37.182Z,73.36
2023-08-21T08:16:05.162Z,73.17
2023-08-21T08:18:32.419Z,73.52
2023-08-21T08:21:01.052Z,73.67
2023-08-21T08:23:28.335Z,73.08
2023-08-21T08:25:56.104Z,72.47
2023-08-21T08:28:23.145Z,72.66
2023-08-21T08:30:51.294Z,72.45
2023-08-21T08:33:18.638Z,71.82
2023-08-21T08:35:47.153Z,71.82
2023-08-21T08:38:18.787Z,71.75
2023-08-21T08:40:51.650Z,71.58
2023-08-21T08:43:20.471Z,71.58
2023-08-21T08:45:51.056Z,71.25
2023-08-21T08:48:23.842Z,70.89
2023-08-21T08:50:52.848Z,70.83
2023-08-21T08:53:20.811Z,70.82
2023-08-21T08:55:50.805Z,71.06
2023-08-21T08:58:19.794Z,71.18
2023-08-21T09:00:47.957Z,71.04
2023-08-21T09:03:17.037Z,70.96
2023-08-21T09:05:45.265Z,70.58
2023-08-21T09:08:13.740Z,70.38
2023-08-21T09:10:42.072Z,70.58
2023-08-21T09:13:14.590Z,70.52
2023-08-21T09:15:43.739Z,70.44
2023-08-21T09:18:12.067Z,70.27
2023-08-21T09:20:40.073Z,70.44
2023-08-21T09:23:07.891Z,70.06
2023-08-21T09:25:41.880Z,69.79
2023-08-21T09:28:09.397Z,69.13
2023-08-21T09:30:51.538Z,68.82
2023-08-21T09:33:20.145Z,68.89
2023-08-21T09:35:47.986Z,68.71
2023-08-21T09:38:15.039Z,68.56
2023-08-21T09:40:43.588Z,68.52
2023-08-21T09:43:14.657Z,68.62
2023-08-21T09:45:41.802Z,68.71
2023-08-21T09:48:09.738Z,68.35
2023-08-21T09:50:39.048Z,68.22
2023-08-21T09:53:07.408Z,67.89
2023-08-21T09:55:34.882Z,67.87
2023-08-21T09:58:02.965Z,67.28
2023-08-21T10:00:32.502Z,67.19
2023-08-21T10:03:07.524Z,67.04
2023-08-21T10:05:38.396Z,66.83
2023-08-21T10:08:08.158Z,66.98
2023-08-21T10:10:40.783Z,66.62
2023-08-21T10:13:08.852Z,66.28
2023-08-21T10:15:40.862Z,66.20
2023-08-21T10:18:33.657Z,66.32
2023-08-21T10:21:29.367Z,66.41
2023-08-21T10:24:01.569Z,66.42
2023-08-21T10:29:07.319Z,65.97
2023-08-21T10:31:40.967Z,65.79
2023-08-21T10:34:16.342Z,65.51
2023-08-21T10:37:04.957Z,65.73
2023-08-21T10:39:38.270Z,65.79
2023-08-21T10:42:42.091Z,65.81
2023-08-21T10:45:15.288Z,66.08
2023-08-21T10:48:05.318Z,66.12
2023-08-21T10:50:34.867Z,66.13
2023-08-21T10:53:02.280Z,65.99
2023-08-21T10:55:30.541Z,65.62
2023-08-21T10:57:58.170Z,64.70
2023-08-21T11:00:25.088Z,64.99
2023-08-21T11:02:52.480Z,64.89
2023-08-21T11:05:19.650Z,65.09
2023-08-21T11:07:51.496Z,64.96
2023-08-21T11:10:23.349Z,65.06
2023-08-21T11:12:57.515Z,65.34
2023-08-21T11:15:38.641Z,64.86
2023-08-21T11:18:07.125Z,64.88
2023-08-21T11:20:41.253Z,64.98
2023-08-21T11:23:10.446Z,64.99
2023-08-21T11:25:42.525Z,64.74
2023-08-21T11:28:10.912Z,64.59
2023-08-21T11:30:39.582Z,64.35
2023-08-21T11:33:12.504Z,64.25
2023-08-21T11:35:41.578Z,63.77
2023-08-21T11:38:19.584Z,64.01
2023-08-21T11:41:00.899Z,63.82
2023-08-21T11:43:42.778Z,63.72
2023-08-21T11:46:11.991Z,63.97
2023-08-21T11:48:40.508Z,63.76
2023-08-21T11:51:09.665Z,63.96
2023-08-21T11:53:49.600Z,63.37
2023-08-21T11:56:18.419Z,63.03
2023-08-21T11:58:47.597Z,63.26
2023-08-21T12:01:19.036Z,63.67
2023-08-21T12:03:50.547Z,63.61
2023-08-21T12:06:37.892Z,63.81
2023-08-21T12:09:05.542Z,63.64
2023-08-21T12:11:37.543Z,63.47
2023-08-21T12:14:21.607Z,63.27
2023-08-21T12:16:48.838Z,62.90
2023-08-21T12:19:17.863Z,62.52
2023-08-21T12:21:44.823Z,62.67
2023-08-21T12:24:12.730Z,63.21
2023-08-21T12:26:49.960Z,62.69
2023-08-21T12:29:18.059Z,62.86
2023-08-21T12:31:45.108Z,62.81
2023-08-21T12:34:13.554Z,62.98
2023-08-21T12:36:42.201Z,62.84
2023-08-21T12:39:10.222Z,62.71
2023-08-21T12:41:37.987Z,62.18
2023-08-21T12:44:04.916Z,61.95
2023-08-21T12:46:32.059Z,61.56
2023-08-21T12:49:01.652Z,61.51
2023-08-21T12:51:29.709Z,61.56
2023-08-21T12:53:56.973Z,61.56
2023-08-21T12:56:24.018Z,59.99
2023-08-21T12:58:51.968Z,59.53
2023-08-21T13:01:20.085Z,60.12
2023-08-21T13:03:47.830Z,60.96
2023-08-21T13:06:14.977Z,60.31
2023-08-21T13:08:43.944Z,59.35
2023-08-21T13:11:13.302Z,60.00
2023-08-21T13:13:40.653Z,59.51
2023-08-21T13:16:16.549Z,60.16
2023-08-21T13:18:47.617Z,60.13
2023-08-21T13:21:14.574Z,59.21
2023-08-21T13:23:41.615Z,59.76
2023-08-21T13:26:08.729Z,59.45
2023-08-21T13:28:35.721Z,59.12
2023-08-21T13:31:03.695Z,59.64
2023-08-21T13:33:31.267Z,59.58
2023-08-21T13:35:58.487Z,60.26
2023-08-21T13:38:25.446Z,60.58
2023-08-21T13:40:52.396Z,60.24
2023-08-21T13:45:49.673Z,59.21
2023-08-21T13:48:17.247Z,58.36
2023-08-21T13:50:44.291Z,58.16
2023-08-21T13:53:11.274Z,57.67
2023-08-21T13:55:51.359Z,56.64
2023-08-21T13:58:50.536Z,56.14
2023-08-21T14:01:58.195Z,57.05
2023-08-21T14:04:25.803Z,57.67
2023-08-21T14:06:54.315Z,58.09
2023-08-21T14:09:21.323Z,58.15
2023-08-21T14:11:48.919Z,56.92
2023-08-21T14:14:18.548Z,57.72
2023-08-21T14:16:46.260Z,57.66
2023-08-21T14:19:14.522Z,57.70
2023-08-21T14:21:43.986Z,58.41
2023-08-21T14:24:11.095Z,58.35
2023-08-21T14:26:40.364Z,58.46
2023-08-21T14:29:10.158Z,58.65
2023-08-21T14:31:37.603Z,59.03
2023-08-21T14:34:04.559Z,58.16
2023-08-21T14:36:31.546Z,58.16
2023-08-21T14:39:00.147Z,57.18
2023-08-21T14:41:27.022Z,57.84
2023-08-21T14:43:53.928Z,57.92
2023-08-21T14:46:34.652Z,57.75
2023-08-21T14:49:07.816Z,57.47
2023-08-21T14:51:34.830Z,57.90
2023-08-21T14:54:01.735Z,57.84
2023-08-21T14:56:28.769Z,57.47
2023-08-21T14:58:55.805Z,57.52
2023-08-21T15:01:22.706Z,57.15
2023-08-21T15:03:49.714Z,57.59
2023-08-21T15:06:16.781Z,58.29
2023-08-21T15:08:45.439Z,58.06
2023-08-21T15:11:12.397Z,58.41
2023-08-21T15:13:41.174Z,59.11
2023-08-21T15:16:08.057Z,59.19
2023-08-21T15:19:12.697Z,59.34
2023-08-21T15:21:42.357Z,59.78
2023-08-21T15:24:10.027Z,60.00
2023-08-21T15:26:37.180Z,59.83
2023-08-21T15:29:04.600Z,59.75
2023-08-21T15:31:31.812Z,59.88
2023-08-21T15:33:59.595Z,59.96
2023-08-21T15:36:26.669Z,59.72
2023-08-21T15:38:53.765Z,59.54
2023-08-21T15:41:21.170Z,59.51
2023-08-21T15:43:53.256Z,59.86
2023-08-21T15:46:20.989Z,59.86
2023-08-21T15:48:48.004Z,60.08
2023-08-21T15:51:14.900Z,59.77
2023-08-21T15:53:42.235Z,59.78
2023-08-21T15:56:09.164Z,60.05
2023-08-21T15:58:36.120Z,59.74
2023-08-21T16:01:02.978Z,60.07
2023-08-21T16:03:30.069Z,60.36
2023-08-21T16:05:57.071Z,60.49
2023-08-21T16:08:25.666Z,60.47
2023-08-21T16:10:52.606Z,60.54
2023-08-21T16:13:19.573Z,60.50
2023-08-21T16:15:46.543Z,60.11
2023-08-21T16:18:13.999Z,59.84
2023-08-21T16:20:41.336Z,59.53
2023-08-21T16:23:08.315Z,59.83
2023-08-21T16:25:35.265Z,59.98
2023-08-21T16:28:02.206Z,60.09
2023-08-21T16:30:29.627Z,60.22
2023-08-21T16:32:56.918Z,60.21
2023-08-21T16:35:25.528Z,59.40
2023-08-21T16:37:52.384Z,59.26
2023-08-21T16:40:19.338Z,59.82
2023-08-21T16:42:46.695Z,59.76
2023-08-21T16:45:14.839Z,59.81
2023-08-21T16:47:42.200Z,60.11
2023-08-21T16:50:09.279Z,60.44
2023-08-21T16:52:36.372Z,60.40
2023-08-21T16:55:04.009Z,60.40
2023-08-21T16:57:32.458Z,60.21
2023-08-21T16:59:59.290Z,60.48
2023-08-21T17:02:26.305Z,60.71
2023-08-21T17:04:54.427Z,60.88
2023-08-21T17:07:21.710Z,61.16
2023-08-21T17:09:49.798Z,61.31
2023-08-21T17:12:17.486Z,61.31
2023-08-21T17:14:44.407Z,61.38
2023-08-21T17:17:11.332Z,61.51
2023-08-21T17:19:38.852Z,61.45
2023-08-21T17:22:07.862Z,61.59
2023-08-21T17:24:34.881Z,61.86
2023-08-21T17:27:03.576Z,62.10
2023-08-21T17:29:30.780Z,62.18
2023-08-21T17:31:57.729Z,62.28
2023-08-21T17:34:24.769Z,62.54
2023-08-21T17:36:52.881Z,62.39
2023-08-21T17:39:20.148Z,62.62
2023-08-21T17:41:47.542Z,62.89
2023-08-21T17:44:15.090Z,62.83
2023-08-21T17:46:42.264Z,63.02
2023-08-21T17:49:09.195Z,63.06
2023-08-21T17:51:36.201Z,63.22
2023-08-21T17:54:03.810Z,63.52
2023-08-21T17:56:31.141Z,63.64
2023-08-21T17:58:58.208Z,64.07
2023-08-21T18:01:25.403Z,64.02
2023-08-21T18:03:52.837Z,64.12
2023-08-21T18:06:22.330Z,64.60
2023-08-21T18:08:50.717Z,64.85
2023-08-21T18:11:18.746Z,64.52
2023-08-21T18:13:45.740Z,64.53
2023-08-21T18:16:12.687Z,64.67
2023-08-21T18:18:46.114Z,64.71
2023-08-21T18:21:13.695Z,64.79
2023-08-21T18:23:40.601Z,65.41
2023-08-21T18:26:07.504Z,65.67
2023-08-21T18:28:34.542Z,66.29
2023-08-21T18:31:01.759Z,66.29
2023-08-21T18:33:29.355Z,66.29
2023-08-21T18:35:56.459Z,66.23
2023-08-21T18:38:23.419Z,66.71
2023-08-21T18:40:50.825Z,66.68
2023-08-21T18:43:21.107Z,66.74
2023-08-21T18:45:49.476Z,66.71
2023-08-21T18:48:16.835Z,67.19
2023-08-21T18:50:45.097Z,67.48
2023-08-21T18:53:13.834Z,67.65
2023-08-21T18:55:46.895Z,67.16
2023-08-21T18:58:35.760Z,67.70
2023-08-21T19:01:29.540Z,68.15
2023-08-21T19:04:07.027Z,68.18
2023-08-21T19:06:34.195Z,68.27
2023-08-21T19:09:01.445Z,68.35
2023-08-21T19:11:28.802Z,68.61
2023-08-21T19:13:56.249Z,68.61
2023-08-21T19:16:36.058Z,68.85
2023-08-21T19:19:03.205Z,68.79
2023-08-21T19:26:07.636Z,69.25
2023-08-21T19:28:34.830Z,68.91
2023-08-21T19:31:08.036Z,69.00
2023-08-21T19:33:35.557Z,68.75
2023-08-21T19:36:31.208Z,69.10
2023-08-21T19:38:58.404Z,69.19
2023-08-21T19:41:25.463Z,69.46
2023-08-21T19:43:52.797Z,69.52
2023-08-21T20:24:33.216Z,69.58
2023-08-21T20:27:00.653Z,69.40
2023-08-21T20:29:29.841Z,69.77
2023-08-21T20:31:57.090Z,69.83
2023-08-21T20:34:25.280Z,69.89
2023-08-21T20:36:54.222Z,69.81
2023-08-21T20:39:21.662Z,69.79
2023-08-21T20:41:48.740Z,69.79
2023-08-21T20:44:15.907Z,69.92
2023-08-21T20:46:42.986Z,70.10
2023-08-21T20:49:10.092Z,70.10
2023-08-21T20:51:37.059Z,70.19
2023-08-21T20:54:04.613Z,70.15
2023-08-21T20:56:31.710Z,70.13
2023-08-21T20:58:58.733Z,70.17
2023-08-21T21:01:25.698Z,70.12
2023-08-21T21:03:53.270Z,70.12
2023-08-21T21:06:20.252Z,70.22
2023-08-21T21:08:47.258Z,70.47
2023-08-21T21:11:17.030Z,70.44
2023-08-21T21:13:43.991Z,70.62
2023-08-21T21:16:11.119Z,70.63
2023-08-21T21:18:38.287Z,70.80
2023-08-21T21:21:06.948Z,70.75
2023-08-21T21:23:36.659Z,70.66
2023-08-21T21:26:03.803Z,70.82
2023-08-21T21:28:31.611Z,70.97
2023-08-21T21:30:59.357Z,70.77
2023-08-21T21:33:27.367Z,71.00
2023-08-21T21:35:57.985Z,71.13
2023-08-21T21:38:28.273Z,71.13
2023-08-21T21:40:56.379Z,71.16
2023-08-21T21:43:27.525Z,71.17
2023-08-21T21:45:59.131Z,71.11
2023-08-21T21:48:29.096Z,71.16
2023-08-21T21:50:56.171Z,71.21
2023-08-21T21:53:27.954Z,71.21
2023-08-21T21:55:55.449Z,71.31
2023-08-21T21:58:25.045Z,71.40
2023-08-21T22:00:54.510Z,71.41
2023-08-21T22:03:21.593Z,71.50
2023-08-21T22:05:48.871Z,71.44
2023-08-21T22:08:15.895Z,71.54
2023-08-21T22:10:42.937Z,71.60
2023-08-21T22:13:10.012Z,71.56
2023-08-21T22:15:37.144Z,71.55
2023-08-21T22:18:04.756Z,71.50
2023-08-21T22:20:34.100Z,71.60
2023-08-21T22:23:01.096Z,71.61
2023-08-21T22:25:28.142Z,71.71
2023-08-21T22:27:55.163Z,71.79
2023-08-21T22:30:22.065Z,71.90
2023-08-21T22:32:49.071Z,71.87
2023-08-21T22:35:16.551Z,71.79
2023-08-21T22:37:45.685Z,71.57
2023-08-21T22:40:12.707Z,71.57
2023-08-21T22:42:39.794Z,71.53
2023-08-21T22:45:07.487Z,71.64
2023-08-21T22:47:34.555Z,71.66
2023-08-21T22:50:01.659Z,71.72
2023-08-21T22:52:29.182Z,71.75
2023-08-21T22:54:56.172Z,71.77
2023-08-21T22:57:23.127Z,71.83
2023-08-21T22:59:50.076Z,71.59
2023-08-21T23:02:16.950Z,71.44
2023-08-21T23:04:45.341Z,71.56
2023-08-21T23:07:13.160Z,71.67
2023-08-21T23:09:40.101Z,71.90
2023-08-21T23:12:07.910Z,72.09
2023-08-21T23:14:34.835Z,72.01
2023-08-21T23:17:05.355Z,71.76
2023-08-21T23:19:33.031Z,71.80
2023-08-21T23:21:59.962Z,71.90
2023-08-21T23:24:27.461Z,72.20
2023-08-21T23:26:54.643Z,72.15
2023-08-21T23:29:21.573Z,72.20
2023-08-21T23:31:48.451Z,72.30
2023-08-21T23:34:15.407Z,72.14
2023-08-21T23:36:42.602Z,71.93
2023-08-21T23:39:09.525Z,71.78
2023-08-21T23:41:36.877Z,72.07
2023-08-21T23:44:05.215Z,72.17
2023-08-21T23:46:32.137Z,72.20
2023-08-21T23:48:59.259Z,72.15
2023-08-21T23:51:26.188Z,72.29
2023-08-21T23:53:53.064Z,72.34
2023-08-21T23:56:20.050Z,72.39
2023-08-21T23:58:47.479Z,72.44
